Compton Bay, United Kingdom
Current Conditions -  °F | °C
As of 6:20 PM on Sunday 25 Jan 2015 (Local Time) from EGHI Reporting Station
Broken Clouds Broken Clouds  
Wind Chill: 44°   Ceiling: 2100
Heat Index: 46°   Visibility: 6mi
Dew Point: 39°   Wind: 6mph
Humidity: 76%   Direction: 240°WSW
Pressure: 30.36"   Gusts: NA
Location:  50.68°N, 1.5°W
Report Text: EGHI 251820Z 24005KT 9999 BKN021 08/04 Q1028
Loading
Personal Weather Stations






























Interactive Weather Map New forecast layout! Learn more

10-Day Weather Forecast

Advertisements
Track Severe Weather on mobile